createdAt,value
2022-11-09T00:02:24.510Z,62.84
2022-11-09T00:04:51.420Z,62.83
2022-11-09T00:07:18.511Z,62.54
2022-11-09T00:09:45.601Z,62.47
2022-11-09T00:12:12.682Z,62.39
2022-11-09T00:14:39.733Z,62.31
2022-11-09T00:17:06.798Z,62.22
2022-11-09T00:19:33.675Z,62.26
2022-11-09T00:22:00.585Z,62.76
2022-11-09T00:24:27.503Z,62.67
2022-11-09T00:26:54.493Z,62.38
2022-11-09T00:29:21.435Z,62.46
2022-11-09T00:31:49.819Z,63.11
2022-11-09T00:34:16.900Z,63.03
2022-11-09T00:36:43.831Z,63.15
2022-11-09T00:39:10.796Z,63.43
2022-11-09T00:41:37.632Z,63.68
2022-11-09T00:44:04.635Z,63.14
2022-11-09T00:46:31.878Z,63.09
2022-11-09T00:48:59.093Z,63.41
2022-11-09T00:51:26.363Z,63.19
2022-11-09T00:53:54.968Z,62.75
2022-11-09T00:56:22.740Z,62.99
2022-11-09T00:58:53.603Z,62.23
2022-11-09T01:01:20.739Z,62.76
2022-11-09T01:03:48.183Z,62.42
2022-11-09T01:06:17.543Z,62.46
2022-11-09T01:08:45.251Z,62.78
2022-11-09T01:11:14.387Z,63.07
2022-11-09T01:13:41.537Z,63.34
2022-11-09T01:16:12.040Z,63.50
2022-11-09T01:18:39.889Z,63.54
2022-11-09T01:21:09.414Z,63.54
2022-11-09T01:23:37.449Z,63.68
2022-11-09T01:26:07.831Z,63.59
2022-11-09T01:28:35.015Z,63.50
2022-11-09T01:31:11.784Z,63.78
2022-11-09T01:33:38.539Z,63.94
2022-11-09T01:36:08.009Z,64.19
2022-11-09T01:38:37.931Z,64.92
2022-11-09T01:41:06.506Z,64.71
2022-11-09T01:43:35.121Z,64.20
2022-11-09T01:46:21.194Z,64.26
2022-11-09T01:48:59.186Z,64.24
2022-11-09T01:51:39.483Z,64.58
2022-11-09T01:54:24.586Z,64.39
2022-11-09T01:56:55.175Z,64.43
2022-11-09T01:59:28.050Z,64.63
2022-11-09T02:01:55.333Z,64.86
2022-11-09T02:04:47.607Z,64.90
2022-11-09T02:07:15.130Z,64.58
2022-11-09T02:09:49.543Z,64.22
2022-11-09T02:12:18.392Z,65.16
2022-11-09T02:14:49.883Z,65.25
2022-11-09T02:17:17.937Z,64.98
2022-11-09T02:19:45.418Z,65.28
2022-11-09T02:22:12.570Z,65.71
2022-11-09T02:24:39.580Z,65.83
2022-11-09T02:27:07.072Z,65.74
2022-11-09T02:29:45.659Z,65.67
2022-11-09T02:32:18.243Z,65.68
2022-11-09T02:34:45.506Z,65.74
2022-11-09T02:37:13.064Z,65.14
2022-11-09T02:39:40.309Z,64.76
2022-11-09T02:42:13.725Z,64.88
2022-11-09T02:44:48.150Z,64.55
2022-11-09T02:47:16.032Z,64.81
2022-11-09T02:49:44.825Z,64.71
2022-11-09T02:52:11.765Z,64.68
2022-11-09T02:54:38.820Z,64.30
2022-11-09T02:57:05.833Z,64.01
2022-11-09T02:59:33.353Z,64.17
2022-11-09T03:02:00.557Z,64.40
2022-11-09T03:04:30.326Z,64.62
2022-11-09T03:06:57.766Z,64.73
2022-11-09T03:09:24.904Z,64.52
2022-11-09T03:11:52.162Z,64.58
2022-11-09T03:14:20.132Z,64.41
2022-11-09T03:16:51.796Z,64.72
2022-11-09T03:19:19.520Z,64.97
2022-11-09T03:21:49.491Z,64.73
2022-11-09T03:24:21.150Z,64.98
2022-11-09T03:26:49.754Z,64.56
2022-11-09T03:29:16.746Z,64.30
2022-11-09T03:31:44.023Z,64.26
2022-11-09T03:34:11.047Z,64.26
2022-11-09T03:36:39.394Z,63.91
2022-11-09T03:39:06.438Z,63.87
2022-11-09T03:41:33.819Z,63.87
2022-11-09T03:44:01.450Z,63.65
2022-11-09T03:46:28.404Z,64.01
2022-11-09T03:48:55.411Z,63.59
2022-11-09T03:51:22.263Z,63.38
2022-11-09T03:53:49.152Z,63.46
2022-11-09T03:56:16.052Z,63.63
2022-11-09T03:58:43.005Z,63.59
2022-11-09T04:01:11.118Z,63.59
2022-11-09T04:03:38.442Z,63.36
2022-11-09T04:06:05.536Z,63.46
2022-11-09T04:08:32.606Z,63.79
2022-11-09T04:11:00.869Z,63.99
2022-11-09T04:13:27.975Z,63.81
2022-11-09T04:15:54.934Z,63.95
2022-11-09T04:18:21.981Z,64.37
2022-11-09T04:20:48.878Z,64.25
2022-11-09T04:23:15.786Z,63.70
2022-11-09T04:25:42.836Z,64.04
2022-11-09T04:28:18.738Z,63.72
2022-11-09T04:30:45.769Z,64.01
2022-11-09T04:33:12.685Z,64.08
2022-11-09T04:35:39.539Z,64.33
2022-11-09T04:38:08.148Z,64.11
2022-11-09T04:40:35.915Z,64.41
2022-11-09T04:43:04.750Z,64.30
2022-11-09T04:45:34.194Z,64.74
2022-11-09T04:48:02.465Z,64.96
2022-11-09T04:50:29.898Z,64.81
2022-11-09T04:53:11.792Z,64.85
2022-11-09T04:55:40.004Z,65.19
2022-11-09T04:58:07.609Z,65.20
2022-11-09T05:00:35.513Z,65.25
2022-11-09T05:03:04.393Z,65.08
2022-11-09T05:05:33.297Z,65.22
2022-11-09T05:08:00.293Z,65.36
2022-11-09T05:10:27.261Z,65.32
2022-11-09T05:13:02.091Z,65.14
2022-11-09T05:15:29.551Z,65.29
2022-11-09T05:17:57.012Z,65.45
2022-11-09T05:20:24.373Z,65.37
2022-11-09T05:23:09.989Z,65.17
2022-11-09T05:25:36.935Z,65.21
2022-11-09T05:28:04.296Z,65.13
2022-11-09T05:30:31.501Z,65.32
2022-11-09T05:32:58.468Z,65.51
2022-11-09T05:35:25.360Z,65.70
2022-11-09T05:37:52.269Z,65.60
2022-11-09T05:40:19.969Z,65.58
2022-11-09T05:42:47.436Z,65.73
2022-11-09T05:45:40.855Z,65.65
2022-11-09T05:48:04.562Z,65.78
2022-11-09T05:50:31.587Z,65.50
2022-11-09T05:53:12.480Z,66.35
2022-11-09T05:55:39.693Z,66.71
2022-11-09T05:58:07.445Z,67.14
2022-11-09T06:00:34.946Z,67.55
2022-11-09T06:03:06.527Z,67.53
2022-11-09T06:05:34.452Z,67.81
2022-11-09T06:08:05.914Z,67.92
2022-11-09T06:10:33.325Z,68.05
2022-11-09T06:13:00.599Z,68.31
2022-11-09T06:15:27.847Z,68.72
2022-11-09T06:17:56.379Z,68.88
2022-11-09T06:20:24.410Z,69.06
2022-11-09T06:23:02.995Z,69.44
2022-11-09T06:25:32.298Z,69.73
2022-11-09T06:27:59.455Z,70.02
2022-11-09T06:30:26.436Z,70.00
2022-11-09T06:32:59.126Z,70.70
2022-11-09T06:35:26.227Z,71.55
2022-11-09T06:38:00.338Z,72.74
2022-11-09T06:40:27.705Z,73.26
2022-11-09T06:42:59.355Z,73.33
2022-11-09T06:45:28.635Z,73.50
2022-11-09T06:48:00.109Z,73.29
2022-11-09T06:50:28.710Z,73.23
2022-11-09T06:52:57.142Z,73.49
2022-11-09T06:55:24.031Z,74.11
2022-11-09T06:57:50.974Z,74.69
2022-11-09T07:00:18.538Z,73.97
2022-11-09T07:02:46.167Z,74.16
2022-11-09T07:05:13.312Z,74.35
2022-11-09T07:07:40.278Z,74.68
2022-11-09T07:10:10.084Z,74.87
2022-11-09T07:12:37.333Z,74.17
2022-11-09T07:15:05.000Z,73.27
2022-11-09T07:17:33.080Z,72.72
2022-11-09T07:20:00.335Z,74.21
2022-11-09T07:22:30.184Z,76.15
2022-11-09T07:24:57.096Z,76.93
2022-11-09T07:27:27.816Z,76.14
2022-11-09T07:29:55.212Z,76.68
2022-11-09T07:32:31.086Z,76.35
2022-11-09T07:35:09.974Z,76.27
2022-11-09T07:37:37.369Z,76.09
2022-11-09T07:40:04.767Z,76.28
2022-11-09T07:42:31.644Z,75.83
2022-11-09T07:44:58.597Z,75.58
2022-11-09T07:47:25.492Z,75.11
2022-11-09T07:49:52.319Z,74.60
2022-11-09T07:52:19.243Z,73.20
2022-11-09T07:54:50.879Z,73.96
2022-11-09T07:57:19.035Z,73.52
2022-11-09T07:59:45.999Z,73.37
2022-11-09T08:02:13.131Z,71.88
2022-11-09T08:04:40.240Z,72.54
2022-11-09T08:07:07.205Z,72.35
2022-11-09T08:09:34.192Z,70.56
2022-11-09T08:12:01.103Z,70.82
2022-11-09T08:14:28.092Z,69.59
2022-11-09T08:16:55.513Z,69.43
2022-11-09T08:19:22.418Z,68.11
2022-11-09T08:21:49.571Z,66.61
2022-11-09T08:24:16.686Z,66.99
2022-11-09T08:26:43.576Z,66.76
2022-11-09T08:29:10.533Z,66.16
2022-11-09T08:31:37.430Z,66.06
2022-11-09T08:34:04.331Z,65.35
2022-11-09T08:36:31.558Z,63.38
2022-11-09T08:38:59.444Z,62.90
2022-11-09T08:41:26.316Z,63.92
2022-11-09T08:43:53.405Z,63.43
2022-11-09T08:46:20.315Z,62.88
2022-11-09T08:48:47.485Z,61.49
2022-11-09T08:51:14.407Z,61.78
2022-11-09T08:53:41.383Z,62.06
2022-11-09T08:56:09.705Z,61.71
2022-11-09T08:58:37.081Z,61.60
2022-11-09T09:01:12.279Z,62.28
2022-11-09T09:03:42.380Z,61.35
2022-11-09T09:06:09.485Z,61.77
2022-11-09T09:08:36.465Z,57.67
2022-11-09T09:11:06.470Z,60.67
2022-11-09T09:13:37.727Z,58.88
2022-11-09T09:16:12.531Z,59.17
2022-11-09T09:18:39.535Z,60.38
2022-11-09T09:21:09.659Z,60.98
2022-11-09T09:23:36.823Z,57.69
2022-11-09T09:26:04.382Z,58.50
2022-11-09T09:28:31.494Z,56.77
2022-11-09T09:31:02.194Z,58.57
2022-11-09T09:33:29.429Z,57.30
2022-11-09T09:35:58.056Z,57.67
2022-11-09T09:38:26.304Z,57.36
2022-11-09T09:41:01.582Z,56.79
2022-11-09T09:43:49.598Z,57.44
2022-11-09T09:47:13.362Z,57.25
2022-11-09T09:49:48.424Z,55.69
2022-11-09T09:52:32.431Z,56.21
2022-11-09T09:55:21.080Z,56.82
2022-11-09T09:57:54.525Z,55.58
2022-11-09T10:00:27.954Z,55.57
2022-11-09T10:02:55.399Z,55.80
2022-11-09T10:05:29.803Z,56.08
2022-11-09T10:08:27.757Z,54.43
2022-11-09T10:11:01.677Z,53.64
2022-11-09T10:13:34.359Z,53.22
2022-11-09T10:16:07.241Z,55.15
2022-11-09T10:19:02.107Z,54.17
2022-11-09T10:21:37.974Z,52.98
2022-11-09T10:24:29.540Z,52.36
2022-11-09T10:26:58.962Z,54.04
2022-11-09T10:29:39.239Z,52.27
2022-11-09T10:32:21.451Z,53.21
2022-11-09T10:34:55.681Z,53.76
2022-11-09T10:37:43.832Z,53.22
2022-11-09T10:40:25.880Z,53.35
2022-11-09T10:43:14.250Z,52.78
2022-11-09T10:46:05.725Z,53.71
2022-11-09T10:48:53.189Z,52.25
2022-11-09T10:51:38.143Z,50.40
2022-11-09T10:54:25.114Z,51.05
2022-11-09T10:57:19.565Z,52.14
2022-11-09T11:00:06.671Z,52.01
2022-11-09T11:02:53.322Z,49.57
2022-11-09T11:05:39.935Z,50.78
2022-11-09T11:08:30.025Z,51.12
2022-11-09T11:11:33.378Z,51.75
2022-11-09T11:14:31.945Z,50.60
2022-11-09T11:17:21.981Z,51.28
2022-11-09T11:20:30.005Z,52.34
2022-11-09T11:23:22.222Z,51.87
2022-11-09T11:26:23.375Z,52.14
2022-11-09T11:29:42.547Z,51.38
2022-11-09T11:32:27.861Z,51.14
2022-11-09T11:35:27.388Z,51.39
2022-11-09T11:38:39.889Z,51.62
2022-11-09T11:41:28.420Z,49.68
2022-11-09T11:44:29.937Z,50.32
2022-11-09T11:47:33.988Z,50.94
2022-11-09T11:50:41.773Z,50.25
2022-11-09T11:53:39.440Z,49.09
2022-11-09T11:56:43.347Z,49.92
2022-11-09T11:59:54.817Z,48.99
2022-11-09T12:02:43.083Z,49.41
2022-11-09T12:05:46.667Z,49.04
2022-11-09T12:08:51.692Z,49.00
2022-11-09T12:11:51.042Z,48.26
2022-11-09T12:14:42.724Z,49.98
2022-11-09T12:17:48.081Z,47.92
2022-11-09T12:20:53.252Z,48.88
2022-11-09T12:24:10.752Z,50.38
2022-11-09T12:27:33.035Z,50.03
2022-11-09T12:30:24.320Z,49.10
2022-11-09T12:33:19.550Z,49.67
2022-11-09T12:36:22.495Z,49.89
2022-11-09T12:39:39.366Z,47.20
2022-11-09T12:42:24.930Z,48.13
2022-11-09T12:45:13.193Z,47.13
2022-11-09T12:48:05.080Z,46.43
2022-11-09T12:50:52.187Z,45.09
2022-11-09T12:53:39.488Z,47.13
2022-11-09T12:56:32.178Z,48.64
2022-11-09T12:59:29.503Z,47.53
2022-11-09T13:02:27.051Z,48.08
2022-11-09T13:05:43.222Z,47.86
2022-11-09T13:08:30.237Z,48.07
2022-11-09T13:11:30.153Z,48.55
2022-11-09T13:14:21.837Z,47.51
2022-11-09T13:17:25.457Z,46.86
2022-11-09T13:26:47.036Z,48.32
2022-11-09T13:29:41.604Z,47.64
2022-11-09T13:32:29.754Z,46.41
2022-11-09T13:35:48.006Z,46.60
2022-11-09T13:38:35.346Z,47.37
2022-11-09T13:41:30.096Z,47.66
2022-11-09T13:44:31.473Z,47.25
2022-11-09T13:47:26.641Z,47.97
2022-11-09T13:50:19.421Z,47.87
2022-11-09T13:53:30.832Z,48.10
2022-11-09T13:56:27.334Z,48.16
2022-11-09T13:59:42.963Z,48.34
2022-11-09T14:02:28.498Z,48.36
2022-11-09T14:05:27.580Z,48.14
2022-11-09T14:08:25.685Z,48.24
2022-11-09T14:11:20.074Z,48.47
2022-11-09T14:14:24.188Z,48.55
2022-11-09T14:17:39.669Z,49.00
2022-11-09T14:20:54.105Z,49.08
2022-11-09T14:23:39.797Z,49.36
2022-11-09T14:26:26.319Z,49.96
2022-11-09T14:29:23.534Z,49.92
2022-11-09T14:32:36.343Z,51.13
2022-11-09T14:35:30.504Z,51.31
2022-11-09T14:38:22.997Z,51.30
2022-11-09T14:41:22.534Z,51.28
2022-11-09T14:44:20.953Z,51.54
2022-11-09T14:47:18.471Z,51.74
2022-11-09T14:50:05.247Z,51.76
2022-11-09T14:52:52.922Z,51.86
2022-11-09T14:55:42.682Z,51.86
2022-11-09T14:58:30.299Z,52.26
2022-11-09T15:01:16.693Z,52.52
2022-11-09T15:04:20.297Z,52.65
2022-11-09T15:07:06.447Z,52.66
2022-11-09T15:09:56.661Z,52.60
2022-11-09T15:12:49.298Z,52.62
2022-11-09T15:15:35.902Z,52.65
2022-11-09T15:18:33.413Z,52.51
2022-11-09T15:21:25.727Z,52.71
2022-11-09T15:24:11.390Z,52.68
2022-11-09T15:26:57.834Z,52.83
2022-11-09T15:29:44.199Z,53.34
2022-11-09T15:32:35.544Z,53.31
2022-11-09T15:35:21.765Z,53.55
2022-11-09T15:38:32.922Z,53.43
2022-11-09T15:41:20.180Z,53.40
2022-11-09T15:44:06.527Z,53.35
2022-11-09T15:46:53.362Z,53.37
2022-11-09T15:49:39.349Z,53.49
2022-11-09T15:52:25.252Z,53.31
2022-11-09T15:55:15.002Z,53.44
2022-11-09T15:58:00.751Z,52.55
2022-11-09T16:00:46.704Z,52.47
2022-11-09T16:03:32.393Z,52.66
2022-11-09T16:06:23.680Z,52.45
2022-11-09T16:09:09.598Z,52.65
2022-11-09T16:11:55.139Z,52.92
2022-11-09T16:14:41.072Z,52.92
2022-11-09T16:17:26.584Z,52.58
2022-11-09T16:20:11.978Z,53.19
2022-11-09T16:22:57.893Z,53.83
2022-11-09T16:25:44.820Z,53.76
2022-11-09T16:28:30.407Z,54.25
2022-11-09T16:31:16.033Z,54.88
2022-11-09T16:34:01.589Z,55.03
2022-11-09T16:36:53.814Z,55.05
2022-11-09T16:39:42.214Z,55.48
2022-11-09T16:42:27.647Z,56.06
2022-11-09T16:45:16.229Z,56.49
2022-11-09T16:48:04.854Z,56.39
2022-11-09T16:50:53.526Z,56.77
2022-11-09T16:53:39.120Z,56.86
2022-11-09T16:56:24.782Z,57.21
2022-11-09T16:59:10.364Z,57.15
2022-11-09T17:01:56.591Z,57.37
2022-11-09T17:04:42.127Z,57.66
2022-11-09T17:07:28.702Z,57.79
2022-11-09T17:10:14.927Z,57.88
2022-11-09T17:13:01.139Z,57.91
2022-11-09T17:15:51.999Z,57.71
2022-11-09T17:18:39.982Z,57.53
2022-11-09T17:21:26.380Z,57.67
2022-11-09T17:24:11.749Z,57.95
2022-11-09T17:26:57.404Z,57.73
2022-11-09T17:29:42.918Z,57.38
2022-11-09T17:32:29.445Z,57.50
2022-11-09T17:35:14.706Z,57.66
2022-11-09T17:38:00.199Z,57.70
2022-11-09T17:40:45.865Z,58.10
2022-11-09T17:43:36.802Z,58.12
2022-11-09T17:46:22.646Z,58.32
2022-11-09T17:49:10.176Z,58.20
2022-11-09T17:51:56.020Z,58.63
2022-11-09T17:54:41.766Z,58.66
2022-11-09T17:57:27.289Z,58.83
2022-11-09T18:00:13.484Z,58.83
2022-11-09T18:02:59.418Z,59.13
2022-11-09T18:05:45.921Z,58.95
2022-11-09T18:08:31.564Z,59.11
2022-11-09T18:11:17.949Z,59.20
2022-11-09T18:14:03.650Z,59.46
2022-11-09T18:16:49.442Z,59.24
2022-11-09T18:19:35.233Z,59.43
2022-11-09T18:22:20.337Z,59.43
2022-11-09T18:25:06.185Z,59.52
2022-11-09T18:27:52.720Z,59.21
2022-11-09T18:30:41.794Z,58.83
2022-11-09T18:33:28.083Z,59.07
2022-11-09T18:36:15.780Z,59.04
2022-11-09T18:39:03.196Z,59.08
2022-11-09T18:41:48.608Z,58.78
2022-11-09T18:44:34.233Z,58.53
2022-11-09T18:47:20.578Z,58.50
2022-11-09T18:50:06.766Z,59.30
2022-11-09T18:52:52.553Z,59.72
2022-11-09T18:55:38.174Z,60.48
2022-11-09T18:58:23.818Z,60.06
2022-11-09T19:01:10.041Z,60.37
2022-11-09T19:03:59.311Z,60.65
2022-11-09T19:06:46.692Z,60.35
2022-11-09T19:09:35.915Z,60.05
2022-11-09T19:12:21.239Z,59.53
2022-11-09T19:15:07.689Z,59.69
2022-11-09T19:17:54.128Z,59.90
2022-11-09T19:20:39.942Z,59.89
2022-11-09T19:23:31.262Z,59.43
2022-11-09T19:26:21.449Z,59.56
2022-11-09T19:29:08.154Z,59.30
2022-11-09T19:31:55.120Z,59.14
2022-11-09T19:34:42.929Z,58.58
2022-11-09T19:37:28.868Z,58.66
2022-11-09T19:40:15.014Z,58.16
2022-11-09T19:43:00.321Z,58.52
2022-11-09T19:45:45.722Z,58.49
2022-11-09T19:48:33.247Z,57.43
2022-11-09T19:51:19.141Z,57.23
2022-11-09T19:54:06.038Z,57.67
2022-11-09T19:56:51.766Z,58.10
2022-11-09T19:59:37.281Z,58.01
2022-11-09T20:02:22.809Z,58.00
2022-11-09T20:05:09.355Z,57.66
2022-11-09T20:07:54.566Z,57.70
2022-11-09T20:10:39.951Z,58.20
2022-11-09T20:13:25.419Z,57.75
2022-11-09T20:16:10.987Z,57.79
2022-11-09T20:18:56.718Z,58.03
2022-11-09T20:21:42.773Z,57.62
2022-11-09T20:24:28.547Z,58.33
2022-11-09T20:27:14.777Z,58.50
2022-11-09T20:29:59.946Z,58.49
2022-11-09T20:32:45.479Z,58.39
2022-11-09T20:35:31.508Z,58.33
2022-11-09T20:38:16.975Z,58.28
2022-11-09T20:41:05.309Z,58.76
2022-11-09T20:43:50.859Z,58.62
2022-11-09T20:46:37.052Z,58.22
2022-11-09T20:49:22.632Z,58.51
2022-11-09T20:52:08.142Z,58.71
2022-11-09T20:54:53.805Z,58.79
2022-11-09T20:57:39.562Z,58.59
2022-11-09T21:00:25.283Z,58.09
2022-11-09T21:03:10.812Z,58.32
2022-11-09T21:06:00.799Z,58.27
2022-11-09T21:08:57.141Z,58.90
2022-11-09T21:12:00.934Z,58.92
2022-11-09T21:14:46.535Z,58.82
2022-11-09T21:17:32.012Z,59.22
2022-11-09T21:20:17.735Z,59.17
2022-11-09T21:23:11.970Z,59.31
2022-11-09T21:26:18.674Z,59.15
2022-11-09T21:29:23.950Z,59.17
2022-11-09T21:32:11.160Z,59.34
2022-11-09T21:34:56.683Z,59.28
2022-11-09T21:37:42.268Z,59.86
2022-11-09T21:40:28.537Z,60.01
2022-11-09T21:43:15.104Z,59.67
2022-11-09T21:46:00.575Z,59.74
2022-11-09T21:48:48.397Z,59.98
2022-11-09T21:51:35.416Z,60.00
2022-11-09T21:54:22.088Z,60.03
2022-11-09T21:57:07.920Z,60.04
2022-11-09T21:59:53.353Z,60.06
2022-11-09T22:02:38.786Z,60.31
2022-11-09T22:05:24.304Z,60.08
2022-11-09T22:08:09.754Z,59.84
2022-11-09T22:11:10.808Z,59.45
2022-11-09T22:14:14.696Z,59.56
2022-11-09T22:17:00.514Z,59.66
2022-11-09T22:20:04.154Z,60.04
2022-11-09T22:22:49.688Z,59.96
2022-11-09T22:25:35.173Z,59.91
2022-11-09T22:28:20.708Z,60.37
2022-11-09T22:31:08.209Z,60.47
2022-11-09T22:33:54.376Z,60.49
2022-11-09T22:36:40.546Z,60.65
2022-11-09T22:39:26.009Z,60.42
2022-11-09T22:42:11.694Z,60.57
2022-11-09T22:44:57.192Z,60.52
2022-11-09T22:47:42.600Z,60.23
2022-11-09T22:50:28.045Z,60.57
2022-11-09T22:53:13.384Z,60.33
2022-11-09T22:56:01.016Z,60.83
2022-11-09T22:58:46.337Z,60.75
2022-11-09T23:01:31.900Z,60.69
2022-11-09T23:04:17.874Z,60.83
2022-11-09T23:07:03.494Z,60.79
2022-11-09T23:09:48.987Z,60.48
2022-11-09T23:12:34.827Z,60.70
2022-11-09T23:15:20.289Z,60.98
2022-11-09T23:18:24.061Z,60.99
2022-11-09T23:21:10.179Z,61.16
2022-11-09T23:23:58.445Z,61.22
2022-11-09T23:26:44.349Z,61.37
2022-11-09T23:29:30.082Z,61.38
2022-11-09T23:32:15.553Z,61.44
2022-11-09T23:35:01.208Z,61.53
2022-11-09T23:37:46.844Z,61.42
2022-11-09T23:40:35.128Z,61.51
2022-11-09T23:43:24.048Z,61.55
2022-11-09T23:46:14.308Z,61.68
2022-11-09T23:48:59.974Z,61.76
2022-11-09T23:51:45.158Z,61.50
2022-11-09T23:54:30.517Z,61.57
2022-11-09T23:57:15.714Z,61.59
